createdAt,value
2024-03-08T00:00:22.800Z,5.15
2024-03-08T00:03:12.284Z,5.38
2024-03-08T00:05:41.072Z,8.73
2024-03-08T00:08:11.698Z,5.32
2024-03-08T00:10:40.687Z,5.03
2024-03-08T00:13:08.948Z,7.43
2024-03-08T00:15:37.309Z,6.03
2024-03-08T00:18:05.741Z,6.00
2024-03-08T00:20:34.760Z,4.00
2024-03-08T00:23:02.984Z,8.32
2024-03-08T00:25:31.464Z,6.13
2024-03-08T00:28:01.365Z,7.38
2024-03-08T00:30:29.834Z,4.75
2024-03-08T00:32:57.999Z,5.55
2024-03-08T00:35:26.682Z,5.47
2024-03-08T00:37:57.824Z,5.97
2024-03-08T00:40:26.200Z,10.52
2024-03-08T00:42:54.669Z,6.90
2024-03-08T00:45:24.982Z,5.78
2024-03-08T00:47:53.214Z,7.75
2024-03-08T00:50:21.663Z,5.50
2024-03-08T00:52:49.803Z,8.10
2024-03-08T00:55:18.640Z,6.90
2024-03-08T00:57:46.872Z,7.93
2024-03-08T01:00:15.791Z,8.18
2024-03-08T01:02:43.906Z,12.18
2024-03-08T01:05:12.370Z,3.40
2024-03-08T01:07:40.496Z,4.90
2024-03-08T01:10:11.285Z,5.47
2024-03-08T01:12:44.060Z,5.85
2024-03-08T01:15:12.818Z,6.72
2024-03-08T01:17:41.017Z,6.32
2024-03-08T01:20:12.604Z,6.15
2024-03-08T01:22:42.182Z,7.97
2024-03-08T01:25:10.666Z,7.35
2024-03-08T01:27:38.754Z,6.18
2024-03-08T01:30:07.939Z,8.15
2024-03-08T01:32:36.107Z,10.57
2024-03-08T01:35:04.780Z,9.32
2024-03-08T01:37:32.810Z,6.90
2024-03-08T01:40:01.284Z,7.50
2024-03-08T01:42:29.306Z,8.32
2024-03-08T01:44:58.362Z,6.57
2024-03-08T01:47:27.152Z,7.28
2024-03-08T01:49:55.625Z,6.25
2024-03-08T01:52:25.349Z,7.55
2024-03-08T01:54:53.760Z,8.15
2024-03-08T01:57:22.604Z,6.55
2024-03-08T01:59:52.153Z,6.90
2024-03-08T02:02:21.320Z,11.02
2024-03-08T02:04:50.454Z,7.00
2024-03-08T02:07:18.501Z,7.05
2024-03-08T02:09:46.782Z,9.70
2024-03-08T02:12:15.438Z,8.68
2024-03-08T02:14:45.526Z,8.85
2024-03-08T02:17:14.354Z,6.32
2024-03-08T02:19:42.943Z,6.65
2024-03-08T02:22:11.026Z,7.75
2024-03-08T02:24:40.162Z,9.25
2024-03-08T02:27:08.406Z,8.38
2024-03-08T02:29:38.074Z,6.90
2024-03-08T02:32:06.177Z,9.05
2024-03-08T02:34:34.606Z,7.55
2024-03-08T02:37:03.092Z,9.85
2024-03-08T02:39:33.447Z,7.78
2024-03-08T02:42:01.565Z,17.25
2024-03-08T02:44:30.053Z,10.43
2024-03-08T02:46:58.105Z,11.48
2024-03-08T02:49:28.117Z,6.97
2024-03-08T02:51:58.419Z,10.80
2024-03-08T02:54:26.710Z,8.52
2024-03-08T02:56:55.178Z,8.65
2024-03-08T02:59:24.973Z,6.93
2024-03-08T03:01:53.045Z,8.32
2024-03-08T03:04:21.280Z,11.75
2024-03-08T03:06:49.310Z,7.40
2024-03-08T03:09:24.789Z,7.22
2024-03-08T03:11:53.179Z,6.07
2024-03-08T03:14:23.101Z,7.95
2024-03-08T03:16:51.302Z,10.05
2024-03-08T03:19:19.700Z,9.73
2024-03-08T03:21:48.433Z,8.32
2024-03-08T03:24:17.712Z,7.22
2024-03-08T03:26:47.428Z,7.80
2024-03-08T03:29:16.926Z,11.10
2024-03-08T03:31:48.145Z,9.48
2024-03-08T03:34:16.737Z,5.80
2024-03-08T03:36:46.445Z,6.72
2024-03-08T03:39:17.745Z,6.60
2024-03-08T03:41:47.764Z,7.72
2024-03-08T03:44:16.247Z,7.40
2024-03-08T03:46:47.400Z,4.25
2024-03-08T03:49:15.629Z,5.85
2024-03-08T03:51:43.727Z,5.82
2024-03-08T03:54:12.486Z,6.63
2024-03-08T03:56:43.528Z,8.90
2024-03-08T03:59:11.878Z,6.53
2024-03-08T04:01:44.638Z,5.93
2024-03-08T04:04:13.828Z,6.60
2024-03-08T04:06:41.896Z,6.55
2024-03-08T04:09:10.813Z,6.88
2024-03-08T04:11:38.869Z,3.97
2024-03-08T04:14:07.202Z,4.10
2024-03-08T04:16:35.153Z,9.77
2024-03-08T04:19:06.334Z,3.65
2024-03-08T04:21:34.348Z,5.35
2024-03-08T04:24:02.692Z,3.35
2024-03-08T04:26:30.773Z,6.18
2024-03-08T04:28:58.976Z,3.55
2024-03-08T04:31:28.181Z,7.60
2024-03-08T04:33:56.500Z,7.10
2024-03-08T04:36:26.239Z,5.45
2024-03-08T04:38:54.583Z,4.32
2024-03-08T04:41:23.011Z,6.32
2024-03-08T04:43:51.235Z,5.07
2024-03-08T04:46:19.394Z,4.10
2024-03-08T04:48:48.194Z,4.43
2024-03-08T04:51:16.867Z,5.15
2024-03-08T04:53:45.435Z,5.00
2024-03-08T04:56:13.525Z,3.63
2024-03-08T04:58:41.754Z,6.72
2024-03-08T05:01:12.191Z,4.07
2024-03-08T05:03:40.702Z,4.57
2024-03-08T05:06:09.219Z,4.35
2024-03-08T05:08:37.940Z,9.52
2024-03-08T05:11:08.593Z,7.63
2024-03-08T05:13:36.982Z,9.45
2024-03-08T05:16:05.332Z,6.43
2024-03-08T05:18:33.737Z,3.88
2024-03-08T05:21:01.885Z,6.85
2024-03-08T05:23:30.688Z,7.00
2024-03-08T05:25:58.957Z,4.70
2024-03-08T05:28:27.760Z,5.97
2024-03-08T05:30:58.253Z,6.55
2024-03-08T05:33:26.603Z,4.40
2024-03-08T05:35:55.230Z,5.32
2024-03-08T05:38:23.920Z,7.95
2024-03-08T05:40:52.801Z,5.00
2024-03-08T05:43:21.341Z,5.18
2024-03-08T05:45:49.378Z,9.20
2024-03-08T05:48:19.970Z,7.65
2024-03-08T05:50:48.167Z,4.50
2024-03-08T05:53:16.695Z,4.45
2024-03-08T05:55:44.995Z,4.55
2024-03-08T05:58:13.380Z,6.20
2024-03-08T06:00:41.351Z,5.28
2024-03-08T06:03:09.767Z,4.40
2024-03-08T06:05:38.821Z,3.75
2024-03-08T06:08:09.277Z,5.53
2024-03-08T06:10:37.236Z,5.68
2024-03-08T06:13:05.809Z,6.25
2024-03-08T06:15:33.918Z,7.13
2024-03-08T06:18:02.951Z,6.22
2024-03-08T06:20:30.885Z,4.43
2024-03-08T06:22:59.150Z,4.18
2024-03-08T06:25:27.080Z,4.72
2024-03-08T06:27:55.450Z,4.70
2024-03-08T06:30:23.781Z,5.47
2024-03-08T06:32:53.038Z,12.57
2024-03-08T06:35:21.783Z,5.85
2024-03-08T08:21:27.604Z,16.50
2024-03-08T08:23:56.604Z,6.07
2024-03-08T08:26:27.849Z,6.22
2024-03-08T08:28:56.941Z,6.25
2024-03-08T08:31:25.207Z,6.75
2024-03-08T08:33:59.766Z,7.03
2024-03-08T08:36:28.061Z,8.02
2024-03-08T08:38:57.843Z,8.55
2024-03-08T08:41:26.768Z,4.65
2024-03-08T08:44:03.646Z,5.13
2024-03-08T08:46:42.078Z,5.13
2024-03-08T08:49:16.107Z,7.28
2024-03-08T08:51:51.469Z,7.93
2024-03-08T08:54:20.112Z,9.18
2024-03-08T08:56:51.232Z,7.95
2024-03-08T08:59:23.581Z,7.32
2024-03-08T09:01:55.127Z,7.80
2024-03-08T09:04:24.446Z,6.57
2024-03-08T09:06:52.547Z,9.43
2024-03-08T09:09:21.120Z,7.57
2024-03-08T09:11:50.644Z,8.13
2024-03-08T09:14:19.480Z,8.48
2024-03-08T09:16:49.033Z,7.10
2024-03-08T09:19:18.790Z,6.97
2024-03-08T09:21:49.496Z,6.45
2024-03-08T09:24:17.959Z,5.30
2024-03-08T09:26:46.047Z,6.55
2024-03-08T09:29:14.599Z,7.05
2024-03-08T09:31:42.905Z,6.97
2024-03-08T09:34:14.985Z,9.57
2024-03-08T09:36:48.322Z,6.88
2024-03-08T09:39:18.181Z,6.80
2024-03-08T09:41:49.422Z,5.60
2024-03-08T09:44:18.024Z,6.07
2024-03-08T09:46:49.072Z,15.43
2024-03-08T09:49:18.266Z,7.82
2024-03-08T09:51:47.506Z,7.70
2024-03-08T09:54:23.260Z,5.70
2024-03-08T09:56:53.632Z,6.18
2024-03-08T09:59:25.134Z,5.80
2024-03-08T10:01:53.774Z,6.43
2024-03-08T10:04:23.788Z,8.95
2024-03-08T10:06:52.192Z,5.30
2024-03-08T10:09:22.361Z,9.35
2024-03-08T10:11:50.558Z,8.82
2024-03-08T10:14:19.645Z,8.10
2024-03-08T10:16:48.363Z,11.60
2024-03-08T10:19:18.486Z,6.05
2024-03-08T10:21:50.733Z,6.95
2024-03-08T10:24:19.291Z,5.72
2024-03-08T10:26:47.471Z,8.55
2024-03-08T10:29:18.998Z,6.15
2024-03-08T10:31:47.490Z,8.70
2024-03-08T10:34:16.144Z,8.23
2024-03-08T10:36:45.658Z,7.65
2024-03-08T10:39:26.516Z,7.32
2024-03-08T10:42:19.836Z,9.68
2024-03-08T10:45:04.674Z,11.93
2024-03-08T10:47:42.481Z,8.82
2024-03-08T10:50:26.538Z,4.15
2024-03-08T10:52:54.915Z,6.45
2024-03-08T10:55:24.859Z,5.13
2024-03-08T10:57:53.339Z,7.68
2024-03-08T11:00:28.208Z,5.15
2024-03-08T11:02:56.654Z,6.20
2024-03-08T11:05:46.378Z,6.53
2024-03-08T11:08:15.941Z,4.88
2024-03-08T11:10:54.162Z,7.15
2024-03-08T11:13:46.672Z,6.97
2024-03-08T11:16:27.266Z,4.93
2024-03-08T11:18:55.979Z,5.30
2024-03-08T11:21:27.895Z,8.68
2024-03-08T11:24:04.835Z,6.28
2024-03-08T11:26:34.008Z,7.85
2024-03-08T11:29:30.500Z,6.18
2024-03-08T11:32:29.447Z,6.65
2024-03-08T11:34:57.880Z,4.60
2024-03-08T11:37:31.687Z,10.25
2024-03-08T11:40:03.139Z,5.18
2024-03-08T11:42:32.735Z,5.30
2024-03-08T11:45:00.892Z,7.70
2024-03-08T11:47:30.930Z,5.63
2024-03-08T11:50:00.776Z,6.07
2024-03-08T11:52:31.029Z,5.40
2024-03-08T11:54:59.750Z,3.72
2024-03-08T11:57:30.034Z,5.03
2024-03-08T11:59:58.374Z,6.88
2024-03-08T12:02:27.300Z,5.38
2024-03-08T12:05:01.814Z,9.52
2024-03-08T12:07:33.669Z,5.57
2024-03-08T12:10:23.538Z,3.67
2024-03-08T12:13:00.037Z,6.72
2024-03-08T12:15:30.122Z,3.88
2024-03-08T12:18:00.108Z,3.45
2024-03-08T12:20:33.393Z,5.53
2024-03-08T12:25:37.697Z,5.53
2024-03-08T12:28:15.148Z,5.57
2024-03-08T12:30:52.447Z,4.00
2024-03-08T12:33:21.310Z,3.80
2024-03-08T12:35:57.509Z,4.15
2024-03-08T12:38:29.487Z,4.07
2024-03-08T12:41:02.878Z,4.05
2024-03-08T12:43:32.820Z,7.32
2024-03-08T12:46:01.608Z,5.10
2024-03-08T12:48:30.158Z,5.38
2024-03-08T12:50:58.365Z,4.88
2024-03-08T12:53:30.272Z,5.30
2024-03-08T12:55:58.760Z,4.40
2024-03-08T12:58:27.702Z,6.43
2024-03-08T13:00:56.111Z,3.72
2024-03-08T13:03:24.619Z,4.45
2024-03-08T13:05:53.171Z,4.65
2024-03-08T13:08:23.225Z,9.43
2024-03-08T13:10:52.503Z,5.88
2024-03-08T13:13:22.208Z,4.72
2024-03-08T13:15:55.307Z,4.57
2024-03-08T13:18:27.648Z,5.25
2024-03-08T13:20:59.077Z,5.75
2024-03-08T13:23:27.521Z,4.45
2024-03-08T13:25:56.055Z,5.93
2024-03-08T13:28:29.319Z,6.80
2024-03-08T13:31:04.479Z,8.15
2024-03-08T13:33:33.323Z,6.32
2024-03-08T13:36:05.405Z,5.18
2024-03-08T13:38:35.319Z,5.63
2024-03-08T13:41:04.434Z,4.30
2024-03-08T13:43:36.056Z,8.75
2024-03-08T13:46:05.895Z,4.13
2024-03-08T13:48:38.846Z,7.18
2024-03-08T13:51:13.705Z,8.38
2024-03-08T13:53:42.166Z,5.70
2024-03-08T13:56:12.312Z,7.55
2024-03-08T13:58:42.254Z,6.13
2024-03-08T14:01:13.759Z,8.27
2024-03-08T14:03:43.222Z,6.53
2024-03-08T14:08:54.903Z,7.32
2024-03-08T14:11:25.425Z,10.30
2024-03-08T14:13:55.299Z,8.90
2024-03-08T14:16:23.664Z,6.80
2024-03-08T14:18:52.470Z,9.30
2024-03-08T14:21:20.851Z,6.07
2024-03-08T14:23:50.350Z,3.50
2024-03-08T14:26:18.597Z,5.82
2024-03-08T14:28:47.566Z,8.27
2024-03-08T14:31:20.204Z,8.02
2024-03-08T14:33:51.658Z,7.15
2024-03-08T14:36:25.068Z,4.63
2024-03-08T14:38:54.049Z,16.40
2024-03-08T14:41:23.647Z,7.50
2024-03-08T14:43:54.714Z,9.25
2024-03-08T14:46:24.851Z,8.88
2024-03-08T14:48:54.368Z,12.32
2024-03-08T14:51:23.994Z,6.88
2024-03-08T14:53:52.660Z,5.55
2024-03-08T14:56:20.781Z,5.80
2024-03-08T14:58:53.236Z,5.28
2024-03-08T15:01:29.635Z,5.28
2024-03-08T15:04:02.567Z,6.25
2024-03-08T15:06:32.765Z,4.82
2024-03-08T15:09:01.415Z,5.65
2024-03-08T15:11:30.883Z,9.40
2024-03-08T15:13:59.783Z,6.22
2024-03-08T15:16:28.027Z,6.88
2024-03-08T15:18:56.544Z,7.53
2024-03-08T15:21:27.348Z,8.00
2024-03-08T15:23:56.015Z,9.15
2024-03-08T15:26:27.352Z,7.47
2024-03-08T15:28:57.062Z,6.90
2024-03-08T15:31:28.797Z,9.55
2024-03-08T15:34:02.399Z,8.88
2024-03-08T15:36:34.751Z,8.05
2024-03-08T15:39:04.345Z,9.65
2024-03-08T15:41:33.030Z,10.23
2024-03-08T15:44:01.706Z,5.93
2024-03-08T15:46:30.337Z,8.27
2024-03-08T15:48:59.220Z,5.32
2024-03-08T15:51:27.718Z,7.95
2024-03-08T15:53:57.925Z,7.78
2024-03-08T15:56:27.455Z,8.90
2024-03-08T15:58:56.311Z,5.68
2024-03-08T16:01:26.328Z,7.25
2024-03-08T16:03:56.285Z,5.72
2024-03-08T16:06:26.165Z,10.35
2024-03-08T16:08:54.981Z,7.88
2024-03-08T16:11:24.482Z,6.53
2024-03-08T16:13:53.378Z,5.50
2024-03-08T16:16:23.420Z,7.85
2024-03-08T16:18:52.750Z,8.20
2024-03-08T16:21:24.168Z,4.75
2024-03-08T16:23:54.569Z,7.78
2024-03-08T16:26:25.829Z,7.10
2024-03-08T16:28:56.399Z,6.25
2024-03-08T16:31:24.752Z,7.35
2024-03-08T16:33:53.432Z,7.10
2024-03-08T16:36:21.684Z,7.60
2024-03-08T16:38:50.328Z,7.88
2024-03-08T16:41:19.039Z,8.30
2024-03-08T16:43:47.931Z,10.50
2024-03-08T16:46:16.427Z,8.35
2024-03-08T16:48:46.224Z,7.13
2024-03-08T16:51:14.899Z,8.48
2024-03-08T16:53:44.361Z,5.97
2024-03-08T16:56:14.300Z,9.00
2024-03-08T16:58:44.155Z,8.75
2024-03-08T17:01:12.925Z,10.25
2024-03-08T17:03:48.339Z,11.40
2024-03-08T17:06:24.892Z,10.18
2024-03-08T17:08:53.926Z,8.60
2024-03-08T17:11:22.833Z,10.68
2024-03-08T17:13:51.488Z,7.57
2024-03-08T17:16:26.482Z,10.55
2024-03-08T17:18:56.971Z,9.75
2024-03-08T17:21:25.767Z,11.18
2024-03-08T17:23:54.172Z,9.02
2024-03-08T17:26:22.315Z,9.43
2024-03-08T17:28:51.295Z,8.32
2024-03-08T17:31:19.910Z,9.68
2024-03-08T17:33:49.073Z,10.98
2024-03-08T17:36:17.911Z,8.65
2024-03-08T17:38:49.998Z,10.85
2024-03-08T17:41:24.798Z,10.52
2024-03-08T17:43:54.752Z,8.77
2024-03-08T17:46:23.114Z,6.57
2024-03-08T17:48:55.467Z,8.98
2024-03-08T17:51:23.729Z,7.95
2024-03-08T17:53:52.717Z,14.52
2024-03-08T17:56:21.113Z,14.73
2024-03-08T17:58:52.452Z,12.55
2024-03-08T18:01:21.283Z,11.90
2024-03-08T18:03:50.867Z,14.55
2024-03-08T18:06:19.028Z,14.80
2024-03-08T18:08:47.448Z,13.23
2024-03-08T18:11:16.736Z,12.38
2024-03-08T18:13:45.496Z,12.50
2024-03-08T18:16:16.264Z,11.57
2024-03-08T18:18:46.804Z,9.32
2024-03-08T18:21:15.487Z,11.98
2024-03-08T18:23:46.297Z,12.57
2024-03-08T18:26:14.622Z,10.32
2024-03-08T18:28:46.619Z,11.63
2024-03-08T18:31:15.382Z,20.95
2024-03-08T18:33:46.165Z,41.40
2024-03-08T18:36:16.463Z,14.90
2024-03-08T18:38:47.320Z,18.00
2024-03-08T18:41:17.364Z,17.05
2024-03-08T18:43:46.219Z,45.10
2024-03-08T18:46:14.560Z,17.67
2024-03-08T18:48:43.369Z,11.00
2024-03-08T18:51:11.876Z,16.67
2024-03-08T18:53:42.978Z,11.60
2024-03-08T18:56:11.585Z,13.60
2024-03-08T18:58:46.160Z,15.18
2024-03-08T19:01:17.583Z,10.80
2024-03-08T19:03:47.416Z,11.18
2024-03-08T19:06:19.666Z,14.55
2024-03-08T19:08:50.193Z,15.18
2024-03-08T19:11:18.851Z,11.95
2024-03-08T19:13:47.984Z,16.58
2024-03-08T19:16:18.314Z,16.38
2024-03-08T19:18:46.994Z,13.00
2024-03-08T19:21:15.296Z,14.68
2024-03-08T19:23:45.653Z,16.38
2024-03-08T19:26:14.190Z,13.40
2024-03-08T19:28:42.994Z,10.65
2024-03-08T19:31:11.249Z,15.70
2024-03-08T19:33:41.712Z,11.90
2024-03-08T19:36:14.066Z,12.02
2024-03-08T19:38:43.801Z,11.20
2024-03-08T19:41:13.711Z,12.45
2024-03-08T19:43:43.007Z,14.60
2024-03-08T19:46:13.446Z,14.32
2024-03-08T19:48:43.622Z,16.10
2024-03-08T19:51:14.946Z,12.55
2024-03-08T19:53:43.621Z,11.90
2024-03-08T19:56:11.867Z,18.40
2024-03-08T19:58:40.536Z,18.08
2024-03-08T20:01:11.037Z,14.13
2024-03-08T20:03:40.926Z,15.73
2024-03-08T20:06:09.206Z,15.10
2024-03-08T20:08:42.447Z,14.40
2024-03-08T20:11:11.889Z,14.87
2024-03-08T20:13:42.159Z,14.98
2024-03-08T20:16:14.207Z,14.68
2024-03-08T20:18:44.299Z,17.35
2024-03-08T20:21:12.591Z,17.27
2024-03-08T20:23:42.805Z,13.05
2024-03-08T20:26:12.646Z,23.05
2024-03-08T20:28:43.697Z,16.13
2024-03-08T20:31:14.020Z,15.18
2024-03-08T20:33:44.885Z,15.00
2024-03-08T20:36:13.413Z,16.45
2024-03-08T20:38:43.682Z,16.48
2024-03-08T20:41:13.126Z,16.88
2024-03-08T20:43:43.178Z,18.55
2024-03-08T20:46:12.736Z,10.68
2024-03-08T20:48:46.814Z,22.65
2024-03-08T20:51:15.152Z,23.13
2024-03-08T20:53:44.497Z,13.95
2024-03-08T20:56:13.032Z,15.57
2024-03-08T20:58:42.770Z,22.27
2024-03-08T21:01:11.747Z,15.30
2024-03-08T21:03:40.933Z,22.00
2024-03-08T21:06:09.684Z,17.88
2024-03-08T21:08:39.997Z,19.70
2024-03-08T21:11:11.486Z,15.95
2024-03-08T21:13:40.228Z,21.20
2024-03-08T21:16:08.587Z,15.52
2024-03-08T21:18:40.287Z,16.75
2024-03-08T21:21:08.645Z,18.27
2024-03-08T21:23:37.640Z,19.80
2024-03-08T21:26:10.602Z,20.67
2024-03-08T21:28:39.836Z,23.08
2024-03-08T21:31:08.298Z,18.23
2024-03-08T21:33:37.723Z,17.00
2024-03-08T21:36:09.478Z,15.43
2024-03-08T21:38:38.196Z,18.50
2024-03-08T21:41:09.881Z,22.48
2024-03-08T21:43:38.891Z,16.10
2024-03-08T21:46:07.107Z,20.08
2024-03-08T21:48:36.163Z,16.45
2024-03-08T21:51:04.600Z,24.40
2024-03-08T21:53:35.732Z,27.95
2024-03-08T21:56:06.466Z,16.08
2024-03-08T21:58:35.660Z,20.85
2024-03-08T22:01:06.378Z,19.67
2024-03-08T22:03:37.228Z,15.68
2024-03-08T22:06:12.003Z,17.77
2024-03-08T22:08:43.509Z,21.60
2024-03-08T22:11:14.643Z,15.85
2024-03-08T22:13:47.180Z,17.05
2024-03-08T22:16:15.671Z,20.23
2024-03-08T22:18:46.392Z,20.00
2024-03-08T22:21:15.243Z,17.30
2024-03-08T22:23:44.202Z,17.65
2024-03-08T22:26:14.462Z,21.50
2024-03-08T22:28:44.932Z,13.02
2024-03-08T22:31:13.346Z,12.27
2024-03-08T22:33:42.260Z,16.38
2024-03-08T22:36:10.747Z,17.80
2024-03-08T22:38:39.336Z,11.95
2024-03-08T22:41:11.772Z,15.45
2024-03-08T22:43:42.678Z,12.00
2024-03-08T22:46:12.313Z,12.07
2024-03-08T22:48:42.854Z,10.05
2024-03-08T22:51:13.543Z,13.75
2024-03-08T22:53:43.091Z,10.95
2024-03-08T22:56:12.623Z,9.55
2024-03-08T22:58:45.601Z,10.45
2024-03-08T23:01:18.379Z,18.83
2024-03-08T23:03:49.157Z,7.80
2024-03-08T23:06:22.695Z,8.50
2024-03-08T23:08:52.517Z,9.63
2024-03-08T23:11:23.725Z,10.60
2024-03-08T23:13:53.218Z,9.73
2024-03-08T23:16:22.035Z,9.40
2024-03-08T23:18:51.550Z,11.82
2024-03-08T23:21:20.986Z,12.15
2024-03-08T23:23:51.866Z,10.60
2024-03-08T23:26:20.282Z,15.95
2024-03-08T23:28:49.136Z,9.50
2024-03-08T23:31:17.508Z,10.35
2024-03-08T23:33:48.432Z,15.88
2024-03-08T23:36:17.353Z,10.93
2024-03-08T23:38:46.457Z,14.68
2024-03-08T23:41:15.817Z,9.82
2024-03-08T23:43:44.953Z,10.20
2024-03-08T23:46:13.243Z,10.40
2024-03-08T23:48:42.283Z,6.97
2024-03-08T23:51:11.630Z,10.88
2024-03-08T23:53:40.213Z,6.65
2024-03-08T23:56:10.139Z,6.82
2024-03-08T23:58:38.932Z,10.57
